Time;durP1;ratioP1;P1;durP2;ratioP2;P2;SDS_P1;SDS_P2;PMS_P1;PMS_P2;Temp;Humidity;BMP_temperature;BMP_pressure;BME280_temperature;BME280_humidity;BME280_pressure;Samples;Min_cycle;Max_cycle;Signal;HPM_P1;HPM_P2
2024/04/01 00:01:56;;;;;;;25.05;14.93;;;;;;;;;;7341156;19;20334;-42
2024/04/01 00:04:22;;;;;;;29.23;15.50;;;;;;;;;;7318848;19;20331;-44
2024/04/01 00:06:47;;;;;;;22.40;14.70;;;;;;;;;;7348617;19;20304;-40
2024/04/01 00:09:12;;;;;;;22.58;14.27;;;;;;;;;;7348793;19;20336;-42
2024/04/01 00:11:38;;;;;;;24.63;15.23;;;;;;;;;;7326949;19;20966;-42
2024/04/01 00:14:03;;;;;;;22.33;13.80;;;;;;;;;;7349020;19;20300;-42
2024/04/01 00:16:28;;;;;;;21.87;13.50;;;;;;;;;;7326129;19;20325;-41
2024/04/01 00:18:54;;;;;;;25.83;13.87;;;;;;;;;;7348585;19;20295;-42
2024/04/01 00:21:19;;;;;;;21.83;12.70;;;;;;;;;;7326442;19;20746;-41
2024/04/01 00:23:48;;;;;;;21.83;12.70;;;;;;;;;;7348357;19;20376;-43
2024/04/01 00:26:14;;;;;;;25.33;13.63;;;;;;;;;;7349369;19;20316;-45
2024/04/01 00:28:39;;;;;;;26.50;15.20;;;;;;;;;;7326710;19;20849;-45
2024/04/01 00:31:05;;;;;;;28.17;16.30;;;;;;;;;;7348859;19;20436;-45
2024/04/01 00:33:30;;;;;;;28.53;15.53;;;;;;;;;;7324084;19;20317;-43
2024/04/01 00:35:56;;;;;;;25.47;14.90;;;;;;;;;;7348001;19;20341;-44
2024/04/01 00:38:22;;;;;;;24.25;14.50;;;;;;;;;;7325712;19;20324;-40
2024/04/01 00:40:48;;;;;;;23.08;14.00;;;;;;;;;;7348548;19;20296;-44
2024/04/01 00:43:13;;;;;;;27.80;15.27;;;;;;;;;;7348430;19;20404;-41
2024/04/01 00:45:40;;;;;;;24.77;13.70;;;;;;;;;;7325227;19;20300;-41
2024/04/01 00:48:07;;;;;;;26.83;13.80;;;;;;;;;;7348233;19;20870;-46
2024/04/01 00:50:33;;;;;;;25.40;15.00;;;;;;;;;;7325788;19;20717;-42
2024/04/01 00:53:00;;;;;;;24.80;14.55;;;;;;;;;;7347126;19;20843;-41
2024/04/01 00:55:26;;;;;;;26.15;15.48;;;;;;;;;;7323430;19;20352;-41
2024/04/01 00:57:52;;;;;;;31.57;17.87;;;;;;;;;;7347927;19;20305;-40
2024/04/01 01:00:17;;;;;;;24.13;14.33;;;;;;;;;;7347705;19;20327;-40
2024/04/01 01:02:43;;;;;;;31.10;17.30;;;;;;;;;;7326727;19;20317;-43
2024/04/01 01:05:10;;;;;;;26.20;15.30;;;;;;;;;;7348043;19;20667;-41
2024/04/01 01:07:36;;;;;;;30.83;15.63;;;;;;;;;;7325158;19;20328;-43
2024/04/01 01:10:01;;;;;;;23.00;14.60;;;;;;;;;;7347772;19;20662;-41
2024/04/01 01:12:26;;;;;;;25.90;15.40;;;;;;;;;;7324743;19;20327;-44
2024/04/01 01:14:52;;;;;;;30.03;16.70;;;;;;;;;;7347054;19;20388;-47
2024/04/01 01:17:17;;;;;;;26.47;15.63;;;;;;;;;;7343935;19;20685;-36
2024/04/01 01:19:43;;;;;;;28.95;15.05;;;;;;;;;;7331554;19;20314;-42
2024/04/01 01:22:08;;;;;;;28.05;15.43;;;;;;;;;;7346356;19;20301;-46
2024/04/01 01:24:34;;;;;;;27.83;16.40;;;;;;;;;;7324574;19;20325;-40
2024/04/01 01:26:59;;;;;;;30.77;17.33;;;;;;;;;;7347368;19;20300;-42
2024/04/01 01:29:29;;;;;;;32.17;18.23;;;;;;;;;;7324678;19;20410;-43
2024/04/01 01:31:55;;;;;;;33.15;18.45;;;;;;;;;;7343215;19;20320;-41
2024/04/01 01:34:20;;;;;;;35.42;18.60;;;;;;;;;;7324905;19;20324;-41
2024/04/01 01:36:46;;;;;;;31.93;18.40;;;;;;;;;;7345467;19;20314;-41
2024/04/01 01:39:12;;;;;;;33.03;18.10;;;;;;;;;;7338261;19;20472;-41
2024/04/01 01:41:37;;;;;;;34.08;18.27;;;;;;;;;;7324233;19;20294;-42
2024/04/01 01:44:03;;;;;;;33.77;18.93;;;;;;;;;;7345568;19;20841;-46
2024/04/01 01:46:28;;;;;;;36.92;19.38;;;;;;;;;;7321633;19;20440;-41
2024/04/01 01:48:54;;;;;;;39.07;21.30;;;;;;;;;;7344772;19;20356;-42
2024/04/01 01:51:19;;;;;;;40.63;21.63;;;;;;;;;;7324074;19;20325;-42
2024/04/01 01:53:44;;;;;;;39.83;21.73;;;;;;;;;;7342333;19;21008;-45
2024/04/01 01:56:10;;;;;;;41.03;22.80;;;;;;;;;;7345514;19;20307;-42
2024/04/01 01:58:35;;;;;;;43.28;23.00;;;;;;;;;;7324486;19;20324;-45
2024/04/01 02:01:01;;;;;;;41.10;21.90;;;;;;;;;;7346476;19;20860;-40
2024/04/01 02:03:26;;;;;;;39.17;21.00;;;;;;;;;;7323058;19;20923;-40
2024/04/01 02:05:51;;;;;;;34.73;20.03;;;;;;;;;;7345593;19;20312;-41
2024/04/01 02:08:17;;;;;;;39.33;22.57;;;;;;;;;;7346492;19;20332;-44
2024/04/01 02:10:42;;;;;;;39.80;22.13;;;;;;;;;;7325394;19;20388;-41
2024/04/01 02:13:09;;;;;;;40.83;21.90;;;;;;;;;;7345556;19;20297;-41
2024/04/01 02:15:34;;;;;;;41.55;22.60;;;;;;;;;;7323115;19;20908;-44
2024/04/01 02:18:00;;;;;;;45.27;23.70;;;;;;;;;;7345920;19;20326;-41
2024/04/01 02:20:26;;;;;;;44.63;23.50;;;;;;;;;;7323176;19;20328;-42
2024/04/01 02:22:52;;;;;;;44.30;23.92;;;;;;;;;;7345105;19;20321;-46
2024/04/01 02:25:17;;;;;;;47.80;24.98;;;;;;;;;;7345481;19;20381;-40
2024/04/01 02:27:45;;;;;;;44.80;23.60;;;;;;;;;;7324768;19;20836;-43
2024/04/01 02:30:11;;;;;;;44.03;23.88;;;;;;;;;;7344408;19;20301;-43
2024/04/01 02:32:37;;;;;;;43.55;23.30;;;;;;;;;;7321518;19;20344;-43
2024/04/01 02:35:03;;;;;;;42.55;24.10;;;;;;;;;;7344904;19;20664;-41
2024/04/01 02:37:29;;;;;;;47.40;25.35;;;;;;;;;;7323150;19;20325;-46
2024/04/01 02:39:54;;;;;;;49.77;25.20;;;;;;;;;;7345097;19;20296;-41
2024/04/01 02:42:20;;;;;;;48.23;25.10;;;;;;;;;;7321357;19;20396;-43
2024/04/01 02:44:45;;;;;;;48.60;24.63;;;;;;;;;;7345618;19;20292;-42
2024/04/01 02:47:11;;;;;;;47.27;25.17;;;;;;;;;;7343804;19;20300;-44
2024/04/01 02:49:36;;;;;;;45.40;24.33;;;;;;;;;;7322937;19;20317;-42
2024/04/01 02:52:01;;;;;;;45.92;25.35;;;;;;;;;;7343760;19;20492;-39
2024/04/01 02:54:27;;;;;;;48.37;25.50;;;;;;;;;;7322030;19;20747;-40
2024/04/01 02:56:54;;;;;;;47.63;24.85;;;;;;;;;;7344114;19;20293;-43
2024/04/01 02:59:19;;;;;;;43.75;23.15;;;;;;;;;;7321797;19;20884;-40
2024/04/01 03:01:45;;;;;;;48.83;24.70;;;;;;;;;;7342068;19;20297;-42
2024/04/01 03:04:10;;;;;;;46.20;24.10;;;;;;;;;;7344661;19;20402;-46
2024/04/01 03:06:36;;;;;;;45.10;24.60;;;;;;;;;;7322881;19;20691;-41
2024/04/01 03:09:02;;;;;;;48.38;26.40;;;;;;;;;;7344074;19;20313;-41
2024/04/01 03:11:27;;;;;;;51.17;27.23;;;;;;;;;;7321873;19;20997;-40
2024/04/01 03:13:53;;;;;;;61.27;28.37;;;;;;;;;;7344675;19;20710;-40
2024/04/01 03:16:19;;;;;;;54.15;27.23;;;;;;;;;;7330759;19;20333;-41
2024/04/01 03:18:44;;;;;;;55.20;27.92;;;;;;;;;;7342385;19;20316;-47
2024/04/01 03:21:09;;;;;;;57.50;28.00;;;;;;;;;;7344372;19;20338;-44
2024/04/01 03:23:35;;;;;;;58.20;28.00;;;;;;;;;;7321340;19;20667;-46
2024/04/01 03:26:00;;;;;;;55.72;28.20;;;;;;;;;;7343422;19;20297;-44
2024/04/01 03:28:26;;;;;;;57.40;28.50;;;;;;;;;;7320317;19;20948;-41
2024/04/01 03:30:51;;;;;;;51.47;26.83;;;;;;;;;;7344548;19;20318;-43
2024/04/01 03:33:17;;;;;;;52.28;27.33;;;;;;;;;;7343266;19;20337;-44
2024/04/01 03:35:42;;;;;;;51.80;26.57;;;;;;;;;;7321705;19;20301;-41
2024/04/01 03:38:08;;;;;;;52.10;26.50;;;;;;;;;;7343664;19;20923;-40
2024/04/01 03:40:36;;;;;;;65.97;29.08;;;;;;;;;;7320143;19;21161;-40
2024/04/01 03:43:03;;;;;;;55.63;29.10;;;;;;;;;;7342489;19;20839;-42
2024/04/01 03:45:29;;;;;;;56.70;28.50;;;;;;;;;;7319035;19;20328;-45
2024/04/01 03:47:54;;;;;;;55.47;29.67;;;;;;;;;;7342990;19;20309;-40
2024/04/01 03:50:19;;;;;;;61.30;30.30;;;;;;;;;;7319080;19;20325;-43
2024/04/01 03:52:45;;;;;;;59.45;30.15;;;;;;;;;;7341713;19;20305;-45
2024/04/01 03:55:10;;;;;;;61.03;29.07;;;;;;;;;;7342472;19;20296;-42
2024/04/01 03:57:35;;;;;;;59.13;29.10;;;;;;;;;;7320886;19;20321;-40
2024/04/01 04:00:01;;;;;;;66.57;30.40;;;;;;;;;;7342348;19;20301;-43
2024/04/01 04:02:27;;;;;;;60.70;29.60;;;;;;;;;;7317498;19;20316;-40
2024/04/01 04:04:53;;;;;;;67.53;32.03;;;;;;;;;;7342313;19;20364;-40
2024/04/01 04:07:18;;;;;;;66.33;31.13;;;;;;;;;;7330765;19;20340;-37
2024/04/01 04:09:43;;;;;;;57.90;29.87;;;;;;;;;;7333150;19;20739;-41
2024/04/01 04:12:11;;;;;;;56.13;27.80;;;;;;;;;;7341494;19;20304;-45
2024/04/01 04:14:36;;;;;;;54.08;28.17;;;;;;;;;;7320122;19;20316;-40
2024/04/01 04:17:02;;;;;;;62.65;29.65;;;;;;;;;;7342359;19;20870;-42
2024/04/01 04:19:27;;;;;;;68.53;30.93;;;;;;;;;;7318992;19;20340;-43
2024/04/01 04:21:53;;;;;;;61.40;30.67;;;;;;;;;;7340713;19;20328;-40
2024/04/01 04:24:19;;;;;;;60.38;29.60;;;;;;;;;;7323038;19;20320;-39
2024/04/01 04:26:44;;;;;;;55.90;29.37;;;;;;;;;;7340828;19;20296;-41
2024/04/01 04:29:10;;;;;;;60.73;29.47;;;;;;;;;;7341340;19;20826;-42
2024/04/01 04:31:35;;;;;;;62.47;29.93;;;;;;;;;;7319633;19;20396;-40
2024/04/01 04:34:01;;;;;;;74.90;31.63;;;;;;;;;;7341019;19;20650;-40
2024/04/01 04:36:26;;;;;;;71.57;33.57;;;;;;;;;;7318859;19;20320;-44
2024/04/01 04:38:53;;;;;;;72.90;33.83;;;;;;;;;;7341182;19;20304;-45
2024/04/01 04:41:18;;;;;;;75.95;33.58;;;;;;;;;;7333235;19;20346;-39
2024/04/01 04:43:44;;;;;;;76.63;33.53;;;;;;;;;;7333024;19;20380;-43
2024/04/01 04:46:11;;;;;;;72.53;33.13;;;;;;;;;;7340081;19;20663;-40
2024/04/01 04:48:39;;;;;;;73.55;33.35;;;;;;;;;;7318323;19;20317;-40
2024/04/01 04:51:04;;;;;;;66.25;32.28;;;;;;;;;;7341438;19;20304;-42
2024/04/01 04:53:29;;;;;;;65.70;31.33;;;;;;;;;;7324499;19;20364;-40
2024/04/01 04:55:55;;;;;;;82.75;44.10;;;;;;;;;;7347056;19;20381;-41
2024/04/01 04:58:20;;;;;;;77.90;43.90;;;;;;;;;;7325492;19;20400;-42
2024/04/01 05:00:46;;;;;;;88.00;48.03;;;;;;;;;;7347284;19;20293;-41
2024/04/01 05:03:11;;;;;;;53.13;31.30;;;;;;;;;;7347181;19;20312;-41
2024/04/01 05:05:36;;;;;;;46.35;27.80;;;;;;;;;;7325823;19;20448;-42
2024/04/01 05:08:03;;;;;;;46.33;24.30;;;;;;;;;;7347619;19;20305;-40
2024/04/01 05:10:30;;;;;;;37.85;20.90;;;;;;;;;;7324193;19;20320;-42
2024/04/01 05:12:55;;;;;;;33.28;19.77;;;;;;;;;;7346671;19;20304;-41
2024/04/01 05:15:20;;;;;;;30.37;18.50;;;;;;;;;;7324405;19;20860;-41
2024/04/01 05:17:46;;;;;;;30.10;17.97;;;;;;;;;;7347363;19;20376;-39
2024/04/01 05:20:13;;;;;;;28.77;18.37;;;;;;;;;;7348039;19;20297;-42
2024/04/01 05:22:39;;;;;;;28.67;17.67;;;;;;;;;;7324632;19;20320;-40
2024/04/01 05:25:04;;;;;;;31.90;17.67;;;;;;;;;;7347023;19;20810;-45
2024/04/01 05:27:29;;;;;;;31.70;18.70;;;;;;;;;;7324538;19;20335;-41
2024/04/01 05:30:03;;;;;;;32.77;18.27;;;;;;;;;;7345926;19;20396;-42
2024/04/01 05:32:32;;;;;;;30.35;17.50;;;;;;;;;;7324536;19;20344;-40
2024/04/01 05:34:57;;;;;;;30.30;17.93;;;;;;;;;;7347371;19;20325;-44
2024/04/01 05:37:23;;;;;;;30.00;18.20;;;;;;;;;;7325106;19;20332;-45
2024/04/01 05:39:52;;;;;;;30.27;17.67;;;;;;;;;;7346680;19;20297;-41
2024/04/01 05:42:18;;;;;;;30.50;17.23;;;;;;;;;;7346485;19;20328;-41
2024/04/01 05:44:43;;;;;;;31.48;17.17;;;;;;;;;;7325778;19;20301;-42
2024/04/01 05:47:08;;;;;;;31.63;18.40;;;;;;;;;;7345224;19;20309;-42
2024/04/01 05:49:34;;;;;;;33.33;18.87;;;;;;;;;;7316030;19;20347;-45
2024/04/01 05:51:59;;;;;;;57.83;33.15;;;;;;;;;;7344312;19;20304;-47
2024/04/01 05:54:25;;;;;;;53.60;31.67;;;;;;;;;;7323354;19;20332;-46
2024/04/01 05:56:50;;;;;;;66.45;37.72;;;;;;;;;;7345756;19;20788;-45
2024/04/01 05:59:15;;;;;;;48.67;28.53;;;;;;;;;;7345646;19;20324;-46
2024/04/01 06:01:41;;;;;;;37.47;21.70;;;;;;;;;;7324759;19;20341;-45
2024/04/01 06:04:06;;;;;;;35.00;20.43;;;;;;;;;;7345540;19;20380;-48
2024/04/01 06:06:32;;;;;;;32.00;19.83;;;;;;;;;;7323940;19;20377;-46
2024/04/01 06:08:57;;;;;;;32.47;19.60;;;;;;;;;;7344426;19;20347;-47
2024/04/01 06:11:22;;;;;;;30.23;18.80;;;;;;;;;;7322875;19;20416;-47
2024/04/01 06:13:48;;;;;;;29.73;18.33;;;;;;;;;;7344776;19;20304;-49
2024/04/01 06:16:13;;;;;;;31.23;18.33;;;;;;;;;;7346157;19;20311;-48
2024/04/01 06:18:39;;;;;;;28.30;17.10;;;;;;;;;;7323343;19;20644;-43
2024/04/01 06:21:04;;;;;;;28.63;17.00;;;;;;;;;;7344721;19;20297;-45
2024/04/01 06:23:30;;;;;;;27.92;17.45;;;;;;;;;;7321789;19;20432;-44
2024/04/01 06:25:55;;;;;;;32.90;18.27;;;;;;;;;;7345689;19;20325;-45
2024/04/01 06:28:20;;;;;;;27.30;17.60;;;;;;;;;;7322117;19;20457;-45
2024/04/01 06:30:47;;;;;;;34.33;19.33;;;;;;;;;;7345390;19;20372;-47
2024/04/01 06:33:13;;;;;;;34.00;21.77;;;;;;;;;;7344926;19;20339;-45
2024/04/01 06:35:38;;;;;;;33.97;22.13;;;;;;;;;;7323381;19;20290;-45
2024/04/01 06:38:05;;;;;;;39.28;24.10;;;;;;;;;;7344447;19;20340;-49
2024/04/01 06:40:33;;;;;;;41.20;24.37;;;;;;;;;;7322681;19;20332;-45
2024/04/01 06:42:58;;;;;;;39.75;24.75;;;;;;;;;;7343885;19;20841;-47
2024/04/01 06:45:24;;;;;;;43.77;27.20;;;;;;;;;;7320213;19;20325;-47
2024/04/01 06:47:49;;;;;;;46.05;26.98;;;;;;;;;;7343973;19;20304;-45
2024/04/01 06:50:14;;;;;;;44.03;26.13;;;;;;;;;;7344363;19;20337;-46
2024/04/01 06:52:40;;;;;;;43.28;26.08;;;;;;;;;;7321502;19;20304;-45
2024/04/01 06:55:05;;;;;;;47.50;27.43;;;;;;;;;;7344240;19;20861;-48
2024/04/01 06:57:31;;;;;;;52.20;28.53;;;;;;;;;;7321910;19;20392;-44
2024/04/01 06:59:56;;;;;;;45.43;27.80;;;;;;;;;;7344159;19;20304;-47
2024/04/01 07:02:22;;;;;;;47.90;27.27;;;;;;;;;;7320984;19;20424;-46
2024/04/01 07:04:47;;;;;;;44.85;27.20;;;;;;;;;;7344102;19;20289;-46
2024/04/01 07:07:12;;;;;;;47.83;28.93;;;;;;;;;;7343927;19;20668;-46
2024/04/01 07:09:38;;;;;;;49.40;28.50;;;;;;;;;;7320977;19;20853;-46
2024/04/01 07:12:03;;;;;;;43.17;26.57;;;;;;;;;;7344151;19;20292;-46
2024/04/01 07:14:29;;;;;;;49.87;27.97;;;;;;;;;;7320639;19;20686;-46
2024/04/01 07:16:55;;;;;;;45.20;27.57;;;;;;;;;;7343698;19;20297;-47
2024/04/01 07:19:20;;;;;;;41.60;26.57;;;;;;;;;;7320500;19;20678;-48
2024/04/01 07:21:46;;;;;;;47.28;28.98;;;;;;;;;;7342841;19;20313;-44
2024/04/01 07:24:13;;;;;;;49.23;30.07;;;;;;;;;;7343710;19;20704;-47
2024/04/01 07:26:39;;;;;;;52.00;30.33;;;;;;;;;;7321766;19;20374;-46
2024/04/01 07:29:04;;;;;;;48.60;31.02;;;;;;;;;;7342482;19;20320;-47
2024/04/01 07:31:29;;;;;;;51.77;30.90;;;;;;;;;;7321251;19;20396;-46
2024/04/01 07:33:55;;;;;;;54.58;31.30;;;;;;;;;;7343115;19;20292;-48
2024/04/01 07:36:20;;;;;;;48.73;30.67;;;;;;;;;;7320733;19;20700;-45
2024/04/01 07:38:46;;;;;;;51.40;30.87;;;;;;;;;;7342735;19;20368;-44
2024/04/01 07:41:11;;;;;;;48.57;30.03;;;;;;;;;;7343400;19;20321;-45
2024/04/01 07:43:36;;;;;;;51.50;30.43;;;;;;;;;;7320856;19;20324;-45
2024/04/01 07:46:02;;;;;;;55.70;31.97;;;;;;;;;;7341445;19;20659;-46
2024/04/01 07:48:27;;;;;;;52.90;30.20;;;;;;;;;;7319222;19;20686;-49
2024/04/01 07:50:53;;;;;;;53.27;30.17;;;;;;;;;;7342122;19;20971;-48
2024/04/01 07:53:18;;;;;;;61.20;33.47;;;;;;;;;;7333351;19;20416;-47
2024/04/01 07:55:43;;;;;;;51.03;30.43;;;;;;;;;;7332779;19;20734;-46
2024/04/01 07:58:09;;;;;;;47.60;29.00;;;;;;;;;;7342218;19;20337;-44
2024/04/01 08:00:37;;;;;;;51.60;30.20;;;;;;;;;;7320322;19;20663;-46
2024/04/01 08:03:03;;;;;;;48.33;29.70;;;;;;;;;;7342348;19;20351;-45
2024/04/01 08:05:28;;;;;;;51.33;30.57;;;;;;;;;;7319502;19;20332;-47
2024/04/01 08:07:53;;;;;;;52.50;30.87;;;;;;;;;;7341705;19;20308;-47
2024/04/01 08:10:19;;;;;;;56.87;31.60;;;;;;;;;;7327203;19;20325;-46
2024/04/01 08:12:44;;;;;;;50.05;31.42;;;;;;;;;;7338495;19;20292;-45
2024/04/01 08:15:09;;;;;;;55.93;32.27;;;;;;;;;;7342459;19;20351;-47
2024/04/01 08:17:35;;;;;;;60.33;32.75;;;;;;;;;;7320252;19;20340;-45
2024/04/01 08:20:00;;;;;;;57.33;33.60;;;;;;;;;;7341095;19;20387;-43
2024/04/01 08:22:26;;;;;;;56.22;32.00;;;;;;;;;;7318379;19;20329;-45
2024/04/01 08:24:51;;;;;;;49.20;29.70;;;;;;;;;;7341179;19;20300;-45
2024/04/01 08:27:16;;;;;;;51.60;31.80;;;;;;;;;;7345064;19;20377;-44
2024/04/01 08:29:42;;;;;;;54.13;31.80;;;;;;;;;;7325180;19;20297;-47
2024/04/01 08:32:08;;;;;;;55.20;33.23;;;;;;;;;;7348007;19;20321;-49
2024/04/01 08:34:33;;;;;;;57.33;32.40;;;;;;;;;;7325945;19;20324;-47
2024/04/01 08:36:59;;;;;;;66.63;37.53;;;;;;;;;;7348048;19;21180;-47
2024/04/01 08:39:24;;;;;;;58.73;34.57;;;;;;;;;;7325252;19;20328;-44
2024/04/01 08:41:52;;;;;;;63.95;35.63;;;;;;;;;;7347019;19;20292;-49
2024/04/01 08:44:17;;;;;;;70.60;39.63;;;;;;;;;;7348651;19;20740;-45
2024/04/01 08:46:44;;;;;;;62.97;36.07;;;;;;;;;;7325841;19;20288;-48
2024/04/01 08:49:11;;;;;;;56.72;33.53;;;;;;;;;;7345728;19;20309;-48
2024/04/01 08:51:37;;;;;;;55.60;32.50;;;;;;;;;;7325879;19;20859;-45
2024/04/01 08:54:03;;;;;;;53.60;31.35;;;;;;;;;;7347126;19;20300;-49
2024/04/01 08:56:29;;;;;;;46.90;29.63;;;;;;;;;;7325182;19;20389;-44
2024/04/01 08:58:55;;;;;;;52.37;30.70;;;;;;;;;;7347258;19;20299;-44
2024/04/01 09:01:21;;;;;;;60.53;34.38;;;;;;;;;;7325142;19;20324;-46
2024/04/01 09:03:48;;;;;;;54.25;32.17;;;;;;;;;;7346862;19;20289;-43
2024/04/01 09:06:14;;;;;;;54.08;32.53;;;;;;;;;;7347750;19;20297;-47
2024/04/01 09:08:40;;;;;;;54.08;32.30;;;;;;;;;;7324351;19;20320;-45
2024/04/01 09:11:06;;;;;;;55.25;33.42;;;;;;;;;;7347091;19;20372;-45
2024/04/01 09:13:31;;;;;;;59.45;34.55;;;;;;;;;;7320339;19;20411;-42
2024/04/01 09:15:57;;;;;;;62.60;35.80;;;;;;;;;;7347253;19;20376;-43
2024/04/01 09:18:23;;;;;;;74.43;39.20;;;;;;;;;;7324153;19;20332;-46
2024/04/01 09:20:49;;;;;;;73.03;39.70;;;;;;;;;;7346578;19;20724;-43
2024/04/01 09:23:14;;;;;;;62.87;36.17;;;;;;;;;;7346440;19;20305;-46
2024/04/01 09:25:39;;;;;;;61.60;35.17;;;;;;;;;;7325135;19;20305;-45
2024/04/01 09:28:05;;;;;;;61.03;35.63;;;;;;;;;;7346708;19;20300;-46
2024/04/01 09:30:30;;;;;;;58.28;34.40;;;;;;;;;;7324408;19;20325;-45
2024/04/01 09:32:56;;;;;;;62.17;35.80;;;;;;;;;;7345813;19;20793;-44
2024/04/01 09:35:22;;;;;;;61.63;35.75;;;;;;;;;;7324488;19;20343;-43
2024/04/01 09:37:49;;;;;;;59.85;35.70;;;;;;;;;;7344891;19;20316;-47
2024/04/01 09:40:15;;;;;;;62.58;35.58;;;;;;;;;;7346540;19;20878;-46
2024/04/01 09:42:41;;;;;;;62.67;35.20;;;;;;;;;;7324167;19;20713;-43
2024/04/01 09:45:08;;;;;;;60.77;35.80;;;;;;;;;;7346821;19;20305;-45
2024/04/01 09:47:37;;;;;;;71.45;42.80;;;;;;;;;;7323195;19;20324;-43
2024/04/01 09:50:05;;;;;;;57.58;34.10;;;;;;;;;;7344752;19;20316;-46
2024/04/01 09:52:31;;;;;;;56.17;33.60;;;;;;;;;;7323094;19;20364;-43
2024/04/01 09:55:01;;;;;;;58.50;34.53;;;;;;;;;;7345626;19;20301;-48
2024/04/01 09:57:44;;;;;;;54.35;34.38;;;;;;;;;;7323750;19;20313;-44
2024/04/01 10:00:14;;;;;;;52.08;32.40;;;;;;;;;;7345742;19;20311;-44
2024/04/01 10:02:58;;;;;;;52.95;32.83;;;;;;;;;;7322583;19;20773;-43
2024/04/01 10:05:24;;;;;;;47.97;31.73;;;;;;;;;;7323574;19;20385;-45
2024/04/01 10:07:58;;;;;;;46.50;30.00;;;;;;;;;;7345251;19;20736;-43
2024/04/01 10:10:46;;;;;;;52.50;32.67;;;;;;;;;;7322234;19;20328;-43
2024/04/01 10:13:30;;;;;;;48.67;30.88;;;;;;;;;;7344928;19;20300;-45
2024/04/01 10:15:59;;;;;;;48.28;30.23;;;;;;;;;;7324441;19;20297;-44
2024/04/01 10:18:39;;;;;;;51.57;31.60;;;;;;;;;;7322124;19;20345;-43
2024/04/01 10:21:20;;;;;;;49.67;30.90;;;;;;;;;;7345837;19;20356;-43
2024/04/01 10:24:01;;;;;;;48.17;30.70;;;;;;;;;;7320972;19;20321;-45
2024/04/01 10:26:46;;;;;;;44.67;28.85;;;;;;;;;;7323282;19;20317;-45
2024/04/01 10:29:29;;;;;;;48.42;30.65;;;;;;;;;;7344156;19;20324;-46
2024/04/01 10:31:55;;;;;;;50.10;32.10;;;;;;;;;;7323378;19;20684;-43
2024/04/01 10:34:20;;;;;;;47.73;30.23;;;;;;;;;;7322538;19;20317;-43
2024/04/01 10:36:51;;;;;;;54.20;32.23;;;;;;;;;;7342082;19;20409;-46
2024/04/01 10:39:16;;;;;;;51.25;30.40;;;;;;;;;;7345417;19;20316;-42
2024/04/01 10:41:42;;;;;;;48.58;29.55;;;;;;;;;;7322123;19;20664;-49
2024/04/01 10:44:10;;;;;;;46.57;29.93;;;;;;;;;;7344408;19;20312;-45
2024/04/01 10:46:54;;;;;;;51.53;31.00;;;;;;;;;;7320499;19;20332;-45
2024/04/01 10:49:38;;;;;;;45.83;28.48;;;;;;;;;;7320319;19;20328;-44
2024/04/01 10:52:25;;;;;;;51.37;32.97;;;;;;;;;;7343701;19;20301;-45
2024/04/01 10:55:07;;;;;;;46.17;27.95;;;;;;;;;;7323163;19;20880;-42
2024/04/01 10:57:47;;;;;;;39.78;26.35;;;;;;;;;;7321146;19;20328;-45
2024/04/01 11:00:25;;;;;;;37.72;25.20;;;;;;;;;;7344338;19;20312;-45
2024/04/01 11:03:08;;;;;;;43.15;27.52;;;;;;;;;;7322370;19;21297;-46
2024/04/01 11:05:52;;;;;;;46.88;28.30;;;;;;;;;;7322701;19;20332;-47
2024/04/01 11:08:28;;;;;;;41.28;24.95;;;;;;;;;;7344216;19;20356;-43
2024/04/01 11:11:12;;;;;;;36.90;24.27;;;;;;;;;;7322225;19;20987;-44
2024/04/01 11:13:38;;;;;;;38.47;25.63;;;;;;;;;;7321266;19;20320;-43
2024/04/01 11:16:04;;;;;;;38.50;24.85;;;;;;;;;;7343677;19;20320;-42
2024/04/01 11:18:32;;;;;;;38.20;25.15;;;;;;;;;;7319398;19;20381;-45
2024/04/01 11:21:02;;;;;;;41.63;25.17;;;;;;;;;;7343600;19;20320;-45
2024/04/01 11:23:46;;;;;;;45.17;27.83;;;;;;;;;;7320819;19;20325;-46
2024/04/01 11:26:23;;;;;;;48.97;28.55;;;;;;;;;;7343042;19;20844;-47
2024/04/01 11:29:03;;;;;;;35.33;23.38;;;;;;;;;;7321342;19;20877;-45
2024/04/01 11:31:30;;;;;;;36.17;22.77;;;;;;;;;;7321035;19;20333;-43
2024/04/01 11:34:15;;;;;;;40.23;25.27;;;;;;;;;;7343253;19;20868;-46
2024/04/01 11:36:46;;;;;;;33.58;21.08;;;;;;;;;;7297838;19;20318;-45
2024/04/01 11:39:16;;;;;;;36.60;23.17;;;;;;;;;;7320152;19;20331;-47
2024/04/01 11:41:44;;;;;;;51.00;29.13;;;;;;;;;;7343380;19;20331;-45
2024/04/01 11:44:10;;;;;;;41.05;25.38;;;;;;;;;;7319117;19;20663;-45
2024/04/01 11:46:36;;;;;;;36.35;23.13;;;;;;;;;;7318414;19;20365;-45
2024/04/01 11:49:02;;;;;;;42.45;26.13;;;;;;;;;;7341567;19;20317;-43
2024/04/01 11:51:34;;;;;;;59.65;31.15;;;;;;;;;;7319210;19;20714;-48
2024/04/01 11:53:59;;;;;;;33.05;21.50;;;;;;;;;;7340380;19;20840;-50
2024/04/01 11:56:41;;;;;;;35.63;22.00;;;;;;;;;;7318738;19;20327;-44
2024/04/01 11:59:07;;;;;;;73.00;40.47;;;;;;;;;;7342029;19;20320;-44
2024/04/01 12:01:36;;;;;;;37.95;23.73;;;;;;;;;;7324667;19;20316;-47
2024/04/01 12:04:05;;;;;;;78.50;41.03;;;;;;;;;;7347010;19;20355;-44
2024/04/01 12:06:31;;;;;;;34.38;23.02;;;;;;;;;;7326325;19;20327;-45
2024/04/01 12:08:58;;;;;;;36.00;22.80;;;;;;;;;;7348500;19;20316;-45
2024/04/01 12:11:27;;;;;;;39.78;24.80;;;;;;;;;;7327709;19;20324;-45
2024/04/01 12:13:53;;;;;;;36.70;24.00;;;;;;;;;;7348156;19;20316;-46
2024/04/01 12:16:19;;;;;;;52.97;29.27;;;;;;;;;;7348259;19;20413;-46
2024/04/01 12:18:45;;;;;;;38.70;22.85;;;;;;;;;;7317378;19;20305;-44
2024/04/01 12:21:11;;;;;;;34.75;21.98;;;;;;;;;;7348754;19;20924;-43
2024/04/01 12:23:37;;;;;;;40.65;23.95;;;;;;;;;;7325400;19;20319;-43
2024/04/01 12:26:12;;;;;;;43.03;24.90;;;;;;;;;;7349233;19;20335;-43
2024/04/01 12:28:37;;;;;;;36.47;22.73;;;;;;;;;;7326002;19;20348;-42
2024/04/01 12:31:03;;;;;;;38.92;22.33;;;;;;;;;;7347776;19;20685;-45
2024/04/01 12:33:30;;;;;;;34.65;22.27;;;;;;;;;;7326272;19;20320;-44
2024/04/01 12:35:56;;;;;;;34.53;22.60;;;;;;;;;;7347516;19;20308;-47
2024/04/01 12:38:22;;;;;;;32.17;21.50;;;;;;;;;;7344148;19;20888;-44
2024/04/01 12:40:49;;;;;;;40.50;24.20;;;;;;;;;;7327269;19;20333;-44
2024/04/01 12:43:15;;;;;;;40.40;24.27;;;;;;;;;;7347136;19;20332;-44
2024/04/01 12:45:44;;;;;;;34.95;22.17;;;;;;;;;;7327143;19;20400;-45
2024/04/01 12:48:14;;;;;;;38.75;24.10;;;;;;;;;;7344852;19;20356;-44
2024/04/01 12:50:42;;;;;;;42.20;25.60;;;;;;;;;;7326105;19;20328;-47
2024/04/01 12:53:11;;;;;;;37.85;23.67;;;;;;;;;;7346363;19;20357;-46
2024/04/01 12:55:37;;;;;;;38.30;23.98;;;;;;;;;;7326389;19;20686;-43
2024/04/01 12:58:14;;;;;;;38.95;24.50;;;;;;;;;;7347159;19;20436;-45
2024/04/01 13:00:42;;;;;;;40.78;25.60;;;;;;;;;;7323634;19;20317;-49
2024/04/01 13:03:08;;;;;;;43.25;26.65;;;;;;;;;;7346632;19;20313;-44
2024/04/01 13:05:36;;;;;;;35.28;22.35;;;;;;;;;;7324015;19;20316;-44
2024/04/01 13:08:07;;;;;;;35.90;22.75;;;;;;;;;;7346149;19;20328;-43
2024/04/01 13:10:42;;;;;;;39.43;23.93;;;;;;;;;;7324083;19;20371;-45
2024/04/01 13:13:07;;;;;;;37.72;22.95;;;;;;;;;;7344435;19;20324;-43
2024/04/01 13:15:33;;;;;;;35.67;23.37;;;;;;;;;;7324067;19;20321;-43
2024/04/01 13:18:02;;;;;;;39.72;24.45;;;;;;;;;;7345246;19;20292;-46
2024/04/01 13:20:33;;;;;;;40.95;26.10;;;;;;;;;;7323653;19;20332;-48
2024/04/01 13:23:19;;;;;;;36.90;23.67;;;;;;;;;;7345801;19;20321;-43
2024/04/01 13:25:49;;;;;;;42.20;25.03;;;;;;;;;;7324627;19;20283;-47
2024/04/01 13:28:14;;;;;;;38.40;22.70;;;;;;;;;;7346706;19;20361;-45
2024/04/01 13:30:45;;;;;;;40.92;23.77;;;;;;;;;;7323873;19;20321;-43
2024/04/01 13:33:21;;;;;;;44.47;26.05;;;;;;;;;;7345774;19;20333;-43
2024/04/01 13:35:49;;;;;;;37.50;24.65;;;;;;;;;;7325095;19;20980;-46
2024/04/01 13:38:23;;;;;;;42.08;26.58;;;;;;;;;;7346174;19;20352;-46
2024/04/01 13:40:52;;;;;;;47.30;28.63;;;;;;;;;;7324152;19;20751;-46
2024/04/01 13:43:26;;;;;;;49.72;28.27;;;;;;;;;;7344984;19;20726;-48
2024/04/01 13:45:55;;;;;;;49.75;27.90;;;;;;;;;;7325107;19;20296;-44
2024/04/01 13:48:28;;;;;;;48.72;30.20;;;;;;;;;;7337935;19;21552;-44
2024/04/01 13:51:03;;;;;;;52.88;30.70;;;;;;;;;;7323107;19;20297;-44
2024/04/01 13:53:45;;;;;;;49.65;31.15;;;;;;;;;;7314685;19;20324;-44
2024/04/01 13:56:16;;;;;;;58.40;32.90;;;;;;;;;;7345226;19;20387;-48
2024/04/01 13:58:49;;;;;;;56.60;33.10;;;;;;;;;;7303928;19;20336;-44
2024/04/01 14:01:28;;;;;;;256.33;133.27;;;;;;;;;;7346096;19;20301;-44
2024/04/01 14:03:56;;;;;;;106.25;57.05;;;;;;;;;;7323020;19;20288;-46
2024/04/01 14:06:48;;;;;;;84.47;45.50;;;;;;;;;;7345531;19;20321;-48
2024/04/01 14:09:21;;;;;;;69.03;40.10;;;;;;;;;;7322069;19;20301;-47
2024/04/01 14:12:05;;;;;;;65.93;38.10;;;;;;;;;;7323155;19;20341;-49
2024/04/01 14:14:44;;;;;;;66.30;37.65;;;;;;;;;;7320268;19;20336;-44
2024/04/01 14:17:21;;;;;;;60.20;36.33;;;;;;;;;;7345800;19;20328;-46
2024/04/01 14:20:06;;;;;;;59.88;35.65;;;;;;;;;;7321746;19;20348;-48